createdAt,value
2022-11-24T00:01:06.241Z,85.75
2022-11-24T00:03:33.205Z,85.85
2022-11-24T00:06:05.794Z,85.97
2022-11-24T00:08:32.712Z,85.73
2022-11-24T00:11:11.818Z,85.82
2022-11-24T00:13:40.099Z,85.75
2022-11-24T00:16:15.698Z,85.84
2022-11-24T00:18:44.933Z,85.95
2022-11-24T00:21:12.522Z,85.89
2022-11-24T00:23:40.257Z,85.66
2022-11-24T00:26:13.627Z,85.43
2022-11-24T00:28:42.674Z,85.72
2022-11-24T00:31:21.303Z,85.33
2022-11-24T00:33:53.766Z,85.65
2022-11-24T00:36:26.579Z,85.47
2022-11-24T00:39:01.201Z,85.37
2022-11-24T00:41:32.069Z,85.27
2022-11-24T00:44:00.283Z,84.71
2022-11-24T00:46:28.852Z,85.42
2022-11-24T00:48:56.299Z,85.50
2022-11-24T00:51:26.216Z,85.09
2022-11-24T00:53:53.340Z,84.97
2022-11-24T00:56:20.435Z,84.90
2022-11-24T00:58:46.975Z,84.51
2022-11-24T01:03:45.203Z,84.47
2022-11-24T01:06:14.548Z,84.43
2022-11-24T01:08:41.974Z,84.57
2022-11-24T01:11:08.579Z,84.76
2022-11-24T01:13:37.044Z,84.50
2022-11-24T01:16:06.069Z,84.69
2022-11-24T01:18:33.891Z,84.46
2022-11-24T01:21:09.843Z,84.73
2022-11-24T01:23:39.256Z,83.88
2022-11-24T01:26:10.674Z,84.04
2022-11-24T01:28:44.846Z,83.83
2022-11-24T01:31:15.320Z,83.48
2022-11-24T01:33:42.052Z,83.57
2022-11-24T01:36:08.733Z,83.60
2022-11-24T01:38:35.391Z,83.87
2022-11-24T01:41:03.350Z,83.93
2022-11-24T01:43:32.258Z,83.79
2022-11-24T01:46:14.606Z,83.66
2022-11-24T01:48:46.948Z,83.43
2022-11-24T01:51:26.154Z,83.52
2022-11-24T01:53:58.879Z,83.27
2022-11-24T01:56:28.819Z,83.47
2022-11-24T01:58:59.660Z,83.16
2022-11-24T02:01:29.295Z,83.14
2022-11-24T02:03:57.108Z,82.96
2022-11-24T02:06:28.218Z,82.76
2022-11-24T02:09:41.383Z,82.48
2022-11-24T02:12:09.375Z,82.91
2022-11-24T02:14:42.309Z,82.49
2022-11-24T02:17:10.957Z,82.64
2022-11-24T02:19:39.309Z,82.46
2022-11-24T02:22:16.090Z,82.24
2022-11-24T02:25:39.708Z,82.18
2022-11-24T02:28:13.521Z,81.59
2022-11-24T02:30:40.423Z,81.39
2022-11-24T02:33:06.988Z,82.08
2022-11-24T02:35:33.735Z,81.57
2022-11-24T02:38:00.221Z,81.41
2022-11-24T02:40:30.090Z,81.48
2022-11-24T02:43:04.192Z,81.45
2022-11-24T02:45:31.777Z,81.08
2022-11-24T02:47:58.637Z,81.11
2022-11-24T02:50:25.455Z,81.49
2022-11-24T02:52:52.243Z,81.37
2022-11-24T02:55:18.849Z,80.95
2022-11-24T02:57:45.357Z,81.14
2022-11-24T03:00:12.293Z,81.11
2022-11-24T03:02:39.014Z,80.94
2022-11-24T03:05:06.189Z,80.88
2022-11-24T03:07:32.651Z,81.30
2022-11-24T03:09:59.312Z,81.38
2022-11-24T03:12:25.857Z,80.95
2022-11-24T03:14:52.335Z,81.07
2022-11-24T03:17:18.796Z,80.92
2022-11-24T03:19:45.395Z,81.14
2022-11-24T03:22:13.248Z,80.45
2022-11-24T03:24:39.722Z,81.00
2022-11-24T03:27:06.180Z,80.96
2022-11-24T03:29:32.739Z,81.22
2022-11-24T03:31:59.448Z,80.87
2022-11-24T03:34:26.143Z,81.50
2022-11-24T03:36:52.627Z,81.18
2022-11-24T03:39:19.049Z,81.43
2022-11-24T03:41:45.523Z,81.00
2022-11-24T03:44:11.968Z,81.21
2022-11-24T03:46:38.907Z,81.73
2022-11-24T03:49:05.599Z,81.17
2022-11-24T03:51:32.036Z,81.12
2022-11-24T03:53:58.463Z,81.13
2022-11-24T03:56:24.893Z,81.17
2022-11-24T03:58:51.698Z,81.12
2022-11-24T04:01:18.447Z,81.21
2022-11-24T04:03:44.898Z,81.06
2022-11-24T04:06:11.496Z,81.60
2022-11-24T04:08:38.134Z,80.94
2022-11-24T04:11:04.770Z,81.16
2022-11-24T04:13:31.255Z,81.07
2022-11-24T04:15:57.678Z,81.12
2022-11-24T04:18:24.206Z,81.14
2022-11-24T04:20:51.510Z,80.98
2022-11-24T04:23:18.545Z,81.08
2022-11-24T04:25:44.972Z,80.94
2022-11-24T04:28:11.521Z,80.83
2022-11-24T04:30:38.558Z,81.04
2022-11-24T04:33:05.012Z,80.91
2022-11-24T04:35:31.404Z,80.96
2022-11-24T04:38:02.767Z,81.12
2022-11-24T04:40:29.295Z,81.31
2022-11-24T04:42:56.257Z,80.88
2022-11-24T04:45:23.478Z,80.69
2022-11-24T04:47:50.130Z,80.82
2022-11-24T04:50:17.111Z,80.76
2022-11-24T04:52:43.671Z,80.88
2022-11-24T04:55:10.699Z,81.03
2022-11-24T04:57:37.370Z,80.93
2022-11-24T05:00:04.216Z,81.11
2022-11-24T05:02:30.808Z,81.08
2022-11-24T05:04:57.281Z,80.90
2022-11-24T05:07:23.743Z,80.64
2022-11-24T05:10:10.999Z,81.08
2022-11-24T05:12:37.472Z,80.85
2022-11-24T05:15:05.364Z,81.04
2022-11-24T05:17:34.611Z,81.29
2022-11-24T05:20:05.598Z,80.96
2022-11-24T05:22:32.167Z,81.21
2022-11-24T05:24:58.694Z,81.14
2022-11-24T05:27:25.134Z,81.17
2022-11-24T05:29:51.617Z,81.28
2022-11-24T05:32:18.244Z,81.22
2022-11-24T05:34:44.709Z,81.30
2022-11-24T05:37:11.149Z,81.49
2022-11-24T05:39:37.682Z,81.59
2022-11-24T05:42:24.654Z,81.34
2022-11-24T05:44:51.409Z,81.65
2022-11-24T05:47:18.468Z,81.59
2022-11-24T05:49:45.030Z,81.49
2022-11-24T05:52:12.191Z,81.91
2022-11-24T05:54:38.742Z,81.76
2022-11-24T05:57:05.602Z,81.64
2022-11-24T05:59:32.169Z,81.89
2022-11-24T06:01:58.730Z,81.47
2022-11-24T06:04:25.323Z,81.67
2022-11-24T06:06:51.863Z,81.94
2022-11-24T06:09:18.298Z,81.89
2022-11-24T06:11:44.738Z,81.58
2022-11-24T06:14:11.748Z,81.62
2022-11-24T06:16:38.541Z,81.72
2022-11-24T06:19:05.021Z,81.58
2022-11-24T06:21:31.837Z,81.58
2022-11-24T06:23:58.547Z,81.79
2022-11-24T06:26:24.950Z,81.54
2022-11-24T06:28:51.397Z,81.05
2022-11-24T06:31:17.838Z,81.22
2022-11-24T06:33:44.699Z,81.49
2022-11-24T06:36:14.069Z,81.28
2022-11-24T06:38:40.556Z,81.19
2022-11-24T06:41:09.802Z,81.19
2022-11-24T06:43:36.604Z,81.17
2022-11-24T06:46:03.499Z,81.33
2022-11-24T06:48:30.559Z,81.63
2022-11-24T06:51:01.323Z,81.36
2022-11-24T06:53:31.043Z,81.12
2022-11-24T06:56:00.030Z,81.28
2022-11-24T06:58:26.740Z,80.88
2022-11-24T07:00:53.459Z,81.55
2022-11-24T07:03:20.210Z,81.00
2022-11-24T07:05:46.765Z,80.97
2022-11-24T07:08:17.787Z,80.32
2022-11-24T07:10:44.960Z,79.83
2022-11-24T07:13:11.434Z,79.45
2022-11-24T07:15:37.855Z,79.49
2022-11-24T07:18:04.729Z,79.29
2022-11-24T07:20:31.398Z,79.28
2022-11-24T07:22:58.638Z,79.15
2022-11-24T07:25:25.813Z,79.07
2022-11-24T07:27:57.050Z,78.67
2022-11-24T07:30:24.249Z,78.79
2022-11-24T07:32:51.169Z,78.68
2022-11-24T07:35:17.928Z,78.63
2022-11-24T07:37:44.479Z,78.77
2022-11-24T07:40:11.482Z,78.76
2022-11-24T07:42:37.863Z,78.26
2022-11-24T07:45:04.648Z,78.48
2022-11-24T07:47:31.168Z,78.28
2022-11-24T07:49:57.605Z,78.18
2022-11-24T07:52:26.592Z,77.99
2022-11-24T07:54:53.170Z,78.30
2022-11-24T07:57:19.615Z,78.12
2022-11-24T07:59:46.429Z,77.89
2022-11-24T08:02:13.523Z,78.47
2022-11-24T08:04:40.071Z,78.41
2022-11-24T08:07:06.792Z,78.58
2022-11-24T08:09:33.252Z,78.52
2022-11-24T08:11:59.743Z,78.76
2022-11-24T08:14:26.391Z,78.95
2022-11-24T08:16:53.034Z,79.22
2022-11-24T08:19:19.732Z,79.17
2022-11-24T08:21:46.184Z,79.22
2022-11-24T08:24:15.139Z,79.46
2022-11-24T08:26:42.287Z,79.44
2022-11-24T08:29:09.603Z,79.82
2022-11-24T08:31:38.746Z,80.40
2022-11-24T08:34:06.069Z,80.75
2022-11-24T08:36:33.368Z,80.81
2022-11-24T08:39:00.820Z,81.24
2022-11-24T08:41:28.406Z,80.87
2022-11-24T08:43:55.451Z,80.61
2022-11-24T08:46:22.175Z,80.57
2022-11-24T08:48:50.309Z,80.71
2022-11-24T08:51:19.411Z,80.91
2022-11-24T08:53:46.055Z,80.37
2022-11-24T08:56:13.328Z,80.06
2022-11-24T08:58:40.776Z,79.71
2022-11-24T09:01:15.780Z,79.45
2022-11-24T09:03:49.932Z,79.47
2022-11-24T09:06:23.462Z,79.67
2022-11-24T09:08:50.035Z,79.39
2022-11-24T09:11:17.540Z,79.21
2022-11-24T09:13:44.563Z,79.22
2022-11-24T09:16:17.499Z,79.14
2022-11-24T09:18:44.382Z,79.18
2022-11-24T09:21:13.540Z,78.93
2022-11-24T09:23:41.082Z,78.73
2022-11-24T09:26:11.198Z,78.67
2022-11-24T09:28:38.321Z,78.39
2022-11-24T09:31:07.951Z,78.22
2022-11-24T09:33:35.037Z,78.49
2022-11-24T09:36:02.055Z,78.21
2022-11-24T09:38:28.688Z,78.05
2022-11-24T09:40:55.904Z,77.79
2022-11-24T09:43:39.507Z,77.45
2022-11-24T09:46:12.761Z,77.09
2022-11-24T09:48:42.412Z,76.61
2022-11-24T09:51:14.569Z,75.73
2022-11-24T09:53:49.761Z,75.32
2022-11-24T09:56:21.967Z,74.88
2022-11-24T09:58:54.326Z,74.20
2022-11-24T10:01:30.948Z,73.63
2022-11-24T10:04:04.307Z,73.46
2022-11-24T10:07:21.119Z,72.94
2022-11-24T10:10:14.054Z,72.33
2022-11-24T10:13:05.658Z,71.67
2022-11-24T10:16:17.894Z,71.15
2022-11-24T10:19:07.687Z,70.78
2022-11-24T10:21:51.924Z,70.28
2022-11-24T10:25:17.150Z,69.82
2022-11-24T10:27:47.413Z,69.23
2022-11-24T10:30:20.373Z,69.02
2022-11-24T10:32:49.729Z,68.53
2022-11-24T10:35:23.194Z,68.46
2022-11-24T10:37:56.500Z,67.89
2022-11-24T10:40:56.543Z,67.44
2022-11-24T10:43:26.840Z,68.00
2022-11-24T10:45:55.047Z,67.62
2022-11-24T10:48:25.632Z,67.67
2022-11-24T10:51:06.296Z,67.31
2022-11-24T10:53:35.385Z,66.82
2022-11-24T10:56:05.268Z,66.17
2022-11-24T10:58:38.435Z,65.60
2022-11-24T11:01:14.161Z,65.02
2022-11-24T11:03:50.984Z,64.69
2022-11-24T11:06:31.336Z,63.91
2022-11-24T11:09:07.141Z,63.81
2022-11-24T11:11:34.911Z,63.41
2022-11-24T11:14:06.459Z,63.15
2022-11-24T11:16:34.730Z,62.78
2022-11-24T11:19:15.739Z,63.00
2022-11-24T11:22:13.852Z,62.39
2022-11-24T11:24:42.454Z,61.64
2022-11-24T11:27:24.688Z,61.61
2022-11-24T11:35:38.789Z,60.47
2022-11-24T11:38:06.836Z,60.74
2022-11-24T11:40:34.786Z,59.49
2022-11-24T11:43:34.392Z,59.41
2022-11-24T11:46:09.697Z,58.62
2022-11-24T11:48:43.630Z,58.63
2022-11-24T11:51:25.901Z,58.92
2022-11-24T11:54:04.483Z,58.32
2022-11-24T11:56:35.157Z,57.86
2022-11-24T11:59:59.320Z,57.93
2022-11-24T12:02:53.647Z,57.85
2022-11-24T12:05:57.920Z,57.98
2022-11-24T12:09:18.075Z,57.67
2022-11-24T12:11:45.334Z,57.37
2022-11-24T12:14:17.729Z,58.55
2022-11-24T12:16:51.236Z,58.54
2022-11-24T12:19:56.408Z,58.90
2022-11-24T12:22:43.824Z,58.95
2022-11-24T12:25:34.516Z,58.97
2022-11-24T12:28:27.141Z,58.73
2022-11-24T12:31:08.857Z,57.66
2022-11-24T12:34:01.110Z,58.23
2022-11-24T12:36:47.779Z,57.76
2022-11-24T12:39:34.313Z,57.91
2022-11-24T12:42:17.396Z,57.34
2022-11-24T12:45:02.517Z,58.19
2022-11-24T12:48:06.782Z,56.69
2022-11-24T12:50:38.605Z,56.95
2022-11-24T12:53:13.567Z,57.33
2022-11-24T12:55:42.511Z,56.79
2022-11-24T12:58:39.055Z,56.21
2022-11-24T13:01:23.275Z,56.25
2022-11-24T13:04:07.662Z,57.03
2022-11-24T13:07:02.042Z,56.44
2022-11-24T13:09:28.457Z,56.53
2022-11-24T13:12:15.194Z,56.30
2022-11-24T13:14:47.964Z,56.69
2022-11-24T13:17:40.593Z,56.22
2022-11-24T13:20:25.219Z,56.06
2022-11-24T13:22:53.991Z,56.86
2022-11-24T13:25:24.314Z,55.93
2022-11-24T13:27:57.467Z,56.26
2022-11-24T13:30:35.937Z,55.95
2022-11-24T13:33:27.300Z,56.30
2022-11-24T13:36:03.054Z,55.89
2022-11-24T13:38:44.842Z,55.62
2022-11-24T13:41:31.197Z,55.88
2022-11-24T13:44:24.465Z,55.84
2022-11-24T13:47:05.567Z,56.28
2022-11-24T13:49:46.456Z,56.29
2022-11-24T13:52:44.468Z,56.27
2022-11-24T13:55:13.870Z,56.95
2022-11-24T13:57:46.373Z,56.79
2022-11-24T14:00:20.448Z,56.77
2022-11-24T14:02:47.384Z,57.35
2022-11-24T14:05:18.949Z,57.38
2022-11-24T14:07:48.586Z,57.73
2022-11-24T14:10:18.695Z,56.96
2022-11-24T14:12:45.126Z,57.54
2022-11-24T14:15:22.460Z,57.49
2022-11-24T14:17:48.881Z,58.91
2022-11-24T14:20:26.565Z,58.28
2022-11-24T14:22:53.688Z,58.60
2022-11-24T14:25:30.136Z,59.00
2022-11-24T14:27:56.813Z,58.89
2022-11-24T14:30:24.796Z,59.46
2022-11-24T14:33:02.208Z,59.46
2022-11-24T14:35:31.257Z,59.77
2022-11-24T14:37:59.004Z,60.24
2022-11-24T14:40:37.749Z,60.26
2022-11-24T14:43:13.203Z,60.61
2022-11-24T14:45:48.566Z,60.74
2022-11-24T14:48:17.610Z,61.02
2022-11-24T14:50:44.652Z,61.47
2022-11-24T14:53:16.325Z,61.70
2022-11-24T14:55:42.731Z,62.52
2022-11-24T14:58:32.268Z,62.67
2022-11-24T15:01:27.450Z,62.41
2022-11-24T15:04:46.277Z,62.81
2022-11-24T15:07:29.191Z,63.47
2022-11-24T15:10:04.272Z,63.62
2022-11-24T15:12:39.407Z,63.88
2022-11-24T15:15:15.235Z,64.07
2022-11-24T15:17:50.847Z,64.76
2022-11-24T15:20:42.228Z,65.00
2022-11-24T15:23:25.271Z,64.84
2022-11-24T15:25:55.046Z,65.37
2022-11-24T15:28:28.057Z,65.70
2022-11-24T15:30:56.824Z,66.36
2022-11-24T15:33:23.541Z,66.07
2022-11-24T15:35:50.204Z,66.82
2022-11-24T15:38:17.012Z,66.69
2022-11-24T15:40:45.644Z,67.31
2022-11-24T15:43:31.267Z,67.99
2022-11-24T15:45:58.895Z,67.84
2022-11-24T15:48:25.715Z,68.50
2022-11-24T15:50:52.944Z,68.66
2022-11-24T15:53:25.727Z,69.08
2022-11-24T15:55:52.724Z,69.00
2022-11-24T15:58:19.387Z,69.41
2022-11-24T16:00:46.385Z,70.21
2022-11-24T16:03:45.076Z,70.20
2022-11-24T16:05:59.389Z,70.40
2022-11-24T16:08:25.764Z,70.84
2022-11-24T16:10:52.199Z,71.67
2022-11-24T16:13:19.089Z,71.32
2022-11-24T16:15:47.711Z,71.16
2022-11-24T16:18:14.089Z,71.92
2022-11-24T16:20:40.641Z,72.01
2022-11-24T16:23:07.195Z,72.15
2022-11-24T16:25:33.792Z,72.95
2022-11-24T16:28:00.239Z,73.43
2022-11-24T16:30:26.638Z,73.42
2022-11-24T16:32:53.179Z,73.38
2022-11-24T16:35:20.079Z,73.77
2022-11-24T16:37:46.631Z,74.58
2022-11-24T16:40:13.285Z,74.16
2022-11-24T16:42:39.794Z,74.21
2022-11-24T16:45:06.808Z,74.20
2022-11-24T16:47:38.915Z,74.10
2022-11-24T16:50:06.698Z,74.40
2022-11-24T16:52:33.085Z,75.09
2022-11-24T16:55:00.152Z,74.70
2022-11-24T16:57:26.596Z,74.94
2022-11-24T16:59:53.021Z,74.79
2022-11-24T17:02:19.494Z,75.60
2022-11-24T17:04:45.971Z,75.08
2022-11-24T17:07:13.814Z,75.53
2022-11-24T17:09:40.937Z,75.49
2022-11-24T17:12:07.692Z,75.26
2022-11-24T17:14:34.402Z,75.57
2022-11-24T17:17:01.180Z,75.79
2022-11-24T17:19:28.116Z,75.68
2022-11-24T17:21:54.646Z,75.60
2022-11-24T17:24:21.479Z,75.98
2022-11-24T17:26:50.223Z,76.35
2022-11-24T17:29:17.086Z,76.30
2022-11-24T17:31:43.533Z,76.21
2022-11-24T17:34:11.965Z,76.29
2022-11-24T17:36:39.665Z,76.79
2022-11-24T17:39:07.172Z,76.71
2022-11-24T17:41:34.146Z,77.02
2022-11-24T17:44:00.614Z,77.08
2022-11-24T17:46:28.590Z,76.85
2022-11-24T17:48:55.661Z,77.16
2022-11-24T17:51:24.070Z,77.64
2022-11-24T17:53:52.193Z,77.29
2022-11-24T17:56:23.869Z,77.62
2022-11-24T17:58:54.951Z,77.78
2022-11-24T18:01:21.968Z,78.06
2022-11-24T18:03:53.174Z,78.06
2022-11-24T18:06:27.815Z,78.00
2022-11-24T18:08:56.707Z,78.22
2022-11-24T18:11:30.942Z,78.26
2022-11-24T18:14:00.956Z,78.49
2022-11-24T18:16:29.877Z,78.46
2022-11-24T18:19:14.334Z,78.14
2022-11-24T18:21:42.164Z,78.60
2022-11-24T18:24:10.456Z,78.87
2022-11-24T18:26:38.992Z,78.92
2022-11-24T18:29:05.748Z,78.77
2022-11-24T18:31:34.166Z,79.08
2022-11-24T18:34:00.783Z,78.96
2022-11-24T18:36:30.624Z,78.81
2022-11-24T18:39:00.698Z,78.96
2022-11-24T18:41:27.103Z,79.35
2022-11-24T18:43:53.492Z,79.35
2022-11-24T18:46:21.008Z,79.88
2022-11-24T18:48:47.587Z,79.55
2022-11-24T18:51:18.495Z,79.63
2022-11-24T18:53:46.844Z,80.37
2022-11-24T18:56:19.051Z,79.73
2022-11-24T18:58:53.412Z,80.00
2022-11-24T19:01:22.990Z,79.50
2022-11-24T19:03:55.078Z,79.89
2022-11-24T19:06:26.467Z,80.28
2022-11-24T19:08:54.255Z,79.54
2022-11-24T19:11:23.458Z,80.55
2022-11-24T19:13:50.322Z,80.29
2022-11-24T19:16:18.825Z,80.77
2022-11-24T19:18:51.833Z,80.18
2022-11-24T19:21:20.327Z,79.93
2022-11-24T19:23:46.779Z,80.37
2022-11-24T19:26:13.226Z,79.88
2022-11-24T19:28:39.688Z,80.31
2022-11-24T19:31:08.785Z,80.19
2022-11-24T19:33:35.913Z,80.23
2022-11-24T19:36:13.324Z,80.07
2022-11-24T19:38:41.042Z,80.45
2022-11-24T19:41:08.866Z,79.96
2022-11-24T19:43:35.577Z,80.25
2022-11-24T19:46:07.090Z,80.66
2022-11-24T19:48:35.406Z,80.38
2022-11-24T19:51:03.486Z,80.10
2022-11-24T19:53:30.568Z,80.58
2022-11-24T19:56:05.445Z,80.46
2022-11-24T19:58:32.028Z,80.04
2022-11-24T20:01:08.580Z,79.87
2022-11-24T20:03:35.689Z,79.36
2022-11-24T20:06:02.700Z,80.78
2022-11-24T20:08:33.984Z,80.51
2022-11-24T20:11:08.467Z,80.19
2022-11-24T20:13:36.579Z,79.88
2022-11-24T20:16:10.101Z,79.37
2022-11-24T20:18:43.732Z,79.70
2022-11-24T20:21:18.036Z,80.02
2022-11-24T20:23:46.438Z,79.31
2022-11-24T20:26:14.363Z,79.33
2022-11-24T20:28:41.662Z,78.95
2022-11-24T20:31:11.760Z,79.04
2022-11-24T20:33:39.376Z,79.01
2022-11-24T20:36:08.782Z,78.79
2022-11-24T20:38:35.585Z,79.83
2022-11-24T20:41:08.774Z,79.12
2022-11-24T20:43:35.908Z,78.63
2022-11-24T20:46:04.095Z,78.49
2022-11-24T20:48:30.877Z,78.23
2022-11-24T20:51:09.597Z,78.72
2022-11-24T20:53:36.949Z,78.99
2022-11-24T20:56:06.125Z,78.74
2022-11-24T20:58:34.567Z,78.86
2022-11-24T21:01:05.723Z,78.49
2022-11-24T21:03:32.783Z,78.59
2022-11-24T21:05:59.764Z,78.29
2022-11-24T21:08:35.935Z,79.40
2022-11-24T21:11:04.091Z,78.95
2022-11-24T21:13:38.209Z,78.75
2022-11-24T21:16:16.687Z,78.31
2022-11-24T21:18:44.858Z,77.87
2022-11-24T21:21:12.409Z,78.78
2022-11-24T21:23:39.029Z,77.72
2022-11-24T21:26:12.993Z,78.14
2022-11-24T21:28:42.883Z,77.94
2022-11-24T21:31:14.862Z,77.99
2022-11-24T21:33:44.784Z,78.01
2022-11-24T21:36:12.866Z,78.32
2022-11-24T21:38:39.311Z,77.83
2022-11-24T21:41:08.244Z,77.49
2022-11-24T21:43:35.299Z,77.50
2022-11-24T21:46:03.001Z,77.16
2022-11-24T21:48:31.479Z,78.00
2022-11-24T21:50:59.631Z,77.38
2022-11-24T21:53:33.332Z,77.59
2022-11-24T21:56:02.606Z,78.27
2022-11-24T21:58:29.742Z,78.11
2022-11-24T22:01:04.961Z,78.42
2022-11-24T22:03:31.916Z,78.20
2022-11-24T22:06:00.439Z,77.84
2022-11-24T22:08:27.685Z,78.66
2022-11-24T22:10:59.568Z,77.90
2022-11-24T22:13:26.009Z,78.07
2022-11-24T22:16:02.387Z,78.78
2022-11-24T22:18:33.561Z,78.75
2022-11-24T22:21:04.644Z,78.64
2022-11-24T22:23:32.250Z,78.16
2022-11-24T22:26:06.614Z,78.19
2022-11-24T22:28:35.324Z,78.38
2022-11-24T22:31:17.528Z,78.45
2022-11-24T22:33:44.535Z,78.01
2022-11-24T22:36:12.819Z,78.10
2022-11-24T22:38:39.636Z,77.74
2022-11-24T22:41:08.700Z,77.93
2022-11-24T22:43:36.838Z,78.27
2022-11-24T22:46:25.133Z,77.44
2022-11-24T22:48:52.926Z,78.44
2022-11-24T22:51:22.206Z,78.08
2022-11-24T22:53:50.596Z,77.79
2022-11-24T22:56:17.650Z,77.97
2022-11-24T22:58:44.409Z,77.83
2022-11-24T23:01:24.994Z,77.49
2022-11-24T23:03:54.288Z,77.20
2022-11-24T23:06:22.811Z,77.10
2022-11-24T23:08:52.147Z,77.44
2022-11-24T23:11:29.139Z,77.04
2022-11-24T23:14:03.119Z,77.19
2022-11-24T23:16:31.559Z,76.87
2022-11-24T23:18:59.725Z,77.32
2022-11-24T23:21:31.917Z,77.58
2022-11-24T23:24:00.213Z,76.87
2022-11-24T23:26:30.097Z,77.33
2022-11-24T23:28:56.852Z,77.61
2022-11-24T23:31:28.501Z,76.98
2022-11-24T23:33:57.421Z,77.50
2022-11-24T23:36:25.133Z,77.36
2022-11-24T23:38:56.738Z,77.33
2022-11-24T23:41:26.749Z,77.09
2022-11-24T23:43:53.319Z,77.15
2022-11-24T23:46:22.162Z,77.33
2022-11-24T23:48:51.449Z,76.92
2022-11-24T23:51:22.040Z,77.20
2022-11-24T23:53:49.983Z,76.96
2022-11-24T23:56:23.762Z,76.99
2022-11-24T23:58:52.204Z,77.15
